createdAt,value
2018-05-29T00:00:05.306Z,26.66
2018-05-29T00:00:31.472Z,26.65
2018-05-29T00:00:57.619Z,26.63
2018-05-29T00:01:23.760Z,26.68
2018-05-29T00:01:49.895Z,26.7
2018-05-29T00:02:16.036Z,26.65
2018-05-29T00:02:42.181Z,26.68
2018-05-29T00:03:08.329Z,26.62
2018-05-29T00:03:34.467Z,26.62
2018-05-29T00:04:00.604Z,26.52
2018-05-29T00:04:26.749Z,26.63
2018-05-29T00:04:52.898Z,26.6
2018-05-29T00:05:19.032Z,26.62
2018-05-29T00:05:45.173Z,26.6
2018-05-29T00:06:11.320Z,26.56
2018-05-29T00:06:37.464Z,26.6
2018-05-29T00:07:03.606Z,26.6
2018-05-29T00:07:29.779Z,26.66
2018-05-29T00:07:55.945Z,26.7
2018-05-29T00:08:22.083Z,26.7
2018-05-29T00:08:48.231Z,26.63
2018-05-29T00:09:14.366Z,26.66
2018-05-29T00:09:40.533Z,26.62
2018-05-29T00:10:06.773Z,26.66
2018-05-29T00:10:32.924Z,26.68
2018-05-29T00:10:59.070Z,26.73
2018-05-29T00:11:25.231Z,26.62
2018-05-29T00:11:51.378Z,26.73
2018-05-29T00:12:17.551Z,26.68
2018-05-29T00:12:43.699Z,26.63
2018-05-29T00:13:09.823Z,26.63
2018-05-29T00:13:35.964Z,26.66
2018-05-29T00:14:02.106Z,26.63
2018-05-29T00:14:28.251Z,26.62
2018-05-29T00:14:54.413Z,26.62
2018-05-29T00:15:20.546Z,26.59
2018-05-29T00:15:46.693Z,26.63
2018-05-29T00:16:12.858Z,26.66
2018-05-29T00:16:39.022Z,26.65
2018-05-29T00:17:05.183Z,26.7
2018-05-29T00:17:31.341Z,26.75
2018-05-29T00:17:57.485Z,26.68
2018-05-29T00:18:23.681Z,26.73
2018-05-29T00:18:49.809Z,26.66
2018-05-29T00:19:15.987Z,26.59
2018-05-29T00:19:42.137Z,26.63
2018-05-29T00:20:08.299Z,26.66
2018-05-29T00:20:34.433Z,26.66
2018-05-29T00:21:00.607Z,26.59
2018-05-29T00:21:26.747Z,26.62
2018-05-29T00:21:52.964Z,26.59
2018-05-29T00:22:19.337Z,26.53
2018-05-29T00:22:45.526Z,26.52
2018-05-29T00:23:11.709Z,26.53
2018-05-29T00:23:37.987Z,26.48
2018-05-29T00:24:04.146Z,26.56
2018-05-29T00:24:30.304Z,26.52
2018-05-29T00:24:56.496Z,26.48
2018-05-29T00:25:22.633Z,26.47
2018-05-29T00:25:48.781Z,26.48
2018-05-29T00:26:14.928Z,26.56
2018-05-29T00:26:41.108Z,26.55
2018-05-29T00:27:07.272Z,26.47
2018-05-29T00:27:33.452Z,26.52
2018-05-29T00:27:59.639Z,26.58
2018-05-29T00:28:25.810Z,26.48
2018-05-29T00:28:51.948Z,26.55
2018-05-29T00:29:18.125Z,26.6
2018-05-29T00:29:44.261Z,26.52
2018-05-29T00:30:10.409Z,26.53
2018-05-29T00:30:36.592Z,26.55
2018-05-29T00:31:02.783Z,26.48
2018-05-29T00:31:28.951Z,26.53
2018-05-29T00:31:55.119Z,26.4
2018-05-29T00:32:21.315Z,26.4
2018-05-29T00:32:47.459Z,26.38
2018-05-29T00:33:13.606Z,26.36
2018-05-29T00:33:39.770Z,26.38
2018-05-29T00:34:05.952Z,26.41
2018-05-29T00:34:32.095Z,26.37
2018-05-29T00:34:58.241Z,26.4
2018-05-29T00:35:24.377Z,26.38
2018-05-29T00:35:50.515Z,26.41
2018-05-29T00:36:16.663Z,26.41
2018-05-29T00:36:42.802Z,26.38
2018-05-29T00:37:08.947Z,26.38
2018-05-29T00:37:35.090Z,26.48
2018-05-29T00:38:01.221Z,26.43
2018-05-29T00:38:27.392Z,26.45
2018-05-29T00:38:53.538Z,26.41
2018-05-29T00:39:19.724Z,26.4
2018-05-29T00:39:45.853Z,26.53
2018-05-29T00:40:12.010Z,26.52
2018-05-29T00:40:38.161Z,26.47
2018-05-29T00:41:04.299Z,26.48
2018-05-29T00:41:30.437Z,26.53
2018-05-29T00:41:56.610Z,26.52
2018-05-29T00:42:22.775Z,26.55
2018-05-29T00:42:48.945Z,26.52
2018-05-29T00:43:15.111Z,26.53
2018-05-29T00:43:41.253Z,26.51
2018-05-29T00:44:07.391Z,26.48
2018-05-29T00:44:33.554Z,26.52
2018-05-29T00:44:59.697Z,26.51
2018-05-29T00:45:25.839Z,26.43
2018-05-29T00:45:52.008Z,26.37
2018-05-29T00:46:18.148Z,26.43
2018-05-29T00:46:44.286Z,26.36
2018-05-29T00:47:10.475Z,26.37
2018-05-29T00:47:36.646Z,26.31
2018-05-29T00:48:02.775Z,26.29
2018-05-29T00:48:28.917Z,26.34
2018-05-29T00:48:55.058Z,26.37
2018-05-29T00:49:21.221Z,26.23
2018-05-29T00:49:48.523Z,26.28
2018-05-29T00:50:16.117Z,26.29
2018-05-29T00:50:42.850Z,26.23
2018-05-29T00:51:09.019Z,26.33
2018-05-29T00:51:35.164Z,26.29
2018-05-29T00:52:01.303Z,26.26
2018-05-29T00:52:27.477Z,26.34
2018-05-29T00:52:53.616Z,26.29
2018-05-29T00:53:19.757Z,26.28
2018-05-29T00:53:45.893Z,26.25
2018-05-29T00:54:12.032Z,26.33
2018-05-29T00:54:38.193Z,26.33
2018-05-29T00:55:04.329Z,26.33
2018-05-29T00:55:30.475Z,26.31
2018-05-29T00:55:56.651Z,26.28
2018-05-29T00:56:22.800Z,26.29
2018-05-29T00:56:48.970Z,26.36
2018-05-29T00:57:15.111Z,26.28
2018-05-29T00:57:41.253Z,26.31
2018-05-29T00:58:07.397Z,26.25
2018-05-29T00:58:33.530Z,26.22
2018-05-29T00:58:59.675Z,26.29
2018-05-29T00:59:25.841Z,26.23
2018-05-29T00:59:51.979Z,26.26
2018-05-29T01:00:18.124Z,26.13
2018-05-29T01:00:44.254Z,26.13
2018-05-29T01:01:10.398Z,26.15
2018-05-29T01:01:36.565Z,26.19
2018-05-29T01:02:02.742Z,26.1
2018-05-29T01:02:28.912Z,26.07
2018-05-29T01:02:55.081Z,26.15
2018-05-29T01:03:21.259Z,26.21
2018-05-29T01:03:47.403Z,26.07
2018-05-29T01:04:13.558Z,26.02
2018-05-29T01:04:39.736Z,26.18
2018-05-29T01:05:05.901Z,26.07
2018-05-29T01:05:32.027Z,26.13
2018-05-29T01:05:58.190Z,26.09
2018-05-29T01:06:24.335Z,26.15
2018-05-29T01:06:50.475Z,26.16
2018-05-29T01:07:16.614Z,26.13
2018-05-29T01:07:42.758Z,26.16
2018-05-29T01:08:08.907Z,26.16
2018-05-29T01:08:35.050Z,26.28
2018-05-29T01:09:01.181Z,26.28
2018-05-29T01:09:27.329Z,26.18
2018-05-29T01:09:53.469Z,26.28
2018-05-29T01:10:19.612Z,26.25
2018-05-29T01:10:45.751Z,26.25
2018-05-29T01:11:11.899Z,26.26
2018-05-29T01:11:38.037Z,26.25
2018-05-29T01:12:04.184Z,26.26
2018-05-29T01:12:30.344Z,26.26
2018-05-29T01:12:56.488Z,26.29
2018-05-29T01:13:22.644Z,26.22
2018-05-29T01:13:48.789Z,26.26
2018-05-29T01:14:14.929Z,26.23
2018-05-29T01:14:41.091Z,26.33
2018-05-29T01:15:07.255Z,26.29
2018-05-29T01:15:33.459Z,26.29
2018-05-29T01:15:59.595Z,26.29
2018-05-29T01:16:25.735Z,26.23
2018-05-29T01:16:51.885Z,26.33
2018-05-29T01:17:18.028Z,26.36
2018-05-29T01:17:44.189Z,26.29
2018-05-29T01:18:10.330Z,26.29
2018-05-29T01:18:36.477Z,26.26
2018-05-29T01:19:02.618Z,26.25
2018-05-29T01:19:28.783Z,26.36
2018-05-29T01:19:54.957Z,26.33
2018-05-29T01:20:21.103Z,26.22
2018-05-29T01:20:47.246Z,26.28
2018-05-29T01:21:13.389Z,26.28
2018-05-29T01:21:39.530Z,26.25
2018-05-29T01:22:05.674Z,26.31
2018-05-29T01:22:31.841Z,26.21
2018-05-29T01:22:57.988Z,26.19
2018-05-29T01:23:24.152Z,26.16
2018-05-29T01:23:50.299Z,26.29
2018-05-29T01:24:16.467Z,26.15
2018-05-29T01:24:42.615Z,26.15
2018-05-29T01:25:08.758Z,26.13
2018-05-29T01:25:34.903Z,26.23
2018-05-29T01:26:01.048Z,26.23
2018-05-29T01:26:27.190Z,26.26
2018-05-29T01:26:53.329Z,26.25
2018-05-29T01:27:19.471Z,26.29
2018-05-29T01:27:45.632Z,26.25
2018-05-29T01:28:11.802Z,26.29
2018-05-29T01:28:37.949Z,26.26
2018-05-29T01:29:04.084Z,26.28
2018-05-29T01:29:30.225Z,26.19
2018-05-29T01:29:56.366Z,26.13
2018-05-29T01:30:22.505Z,26.23
2018-05-29T01:30:48.680Z,26.15
2018-05-29T01:31:14.820Z,26.16
2018-05-29T01:31:40.966Z,26.18
2018-05-29T01:32:07.106Z,26.13
2018-05-29T01:32:33.256Z,26.13
2018-05-29T01:32:59.416Z,26.16
2018-05-29T01:33:25.585Z,26.19
2018-05-29T01:33:51.720Z,26.21
2018-05-29T01:34:17.865Z,26.13
2018-05-29T01:34:44.004Z,26.13
2018-05-29T01:35:10.166Z,26.16
2018-05-29T01:35:36.317Z,26.07
2018-05-29T01:36:02.453Z,26.09
2018-05-29T01:36:28.627Z,26.09
2018-05-29T01:36:54.818Z,26.05
2018-05-29T01:37:20.940Z,26.03
2018-05-29T01:37:47.102Z,26.05
2018-05-29T01:38:13.245Z,26.09
2018-05-29T01:38:39.409Z,26.05
2018-05-29T01:39:05.576Z,26.15
2018-05-29T01:39:31.743Z,26.06
2018-05-29T01:39:57.885Z,26.1
2018-05-29T01:40:24.047Z,26.07
2018-05-29T01:40:50.211Z,26.09
2018-05-29T01:41:16.353Z,26.1
2018-05-29T01:41:42.580Z,26.07
2018-05-29T01:42:08.693Z,26.13
2018-05-29T01:42:34.846Z,26.13
2018-05-29T01:43:00.982Z,26.13
2018-05-29T01:43:27.121Z,26.16
2018-05-29T01:43:53.265Z,26.19
2018-05-29T01:44:19.403Z,26.23
2018-05-29T01:44:45.549Z,26.16
2018-05-29T01:45:11.687Z,26.1
2018-05-29T01:45:37.827Z,26.13
2018-05-29T01:46:03.969Z,26.06
2018-05-29T01:46:30.112Z,26
2018-05-29T01:46:56.250Z,26.03
2018-05-29T01:47:22.406Z,26.02
2018-05-29T01:47:48.569Z,26.03
2018-05-29T01:48:14.709Z,25.99
2018-05-29T01:48:40.878Z,26
2018-05-29T01:49:07.061Z,25.9
2018-05-29T01:49:33.197Z,25.84
2018-05-29T01:49:59.338Z,25.77
2018-05-29T01:50:25.474Z,25.72
2018-05-29T01:50:51.633Z,25.73
2018-05-29T01:51:17.770Z,25.58
2018-05-29T01:51:43.916Z,25.51
2018-05-29T01:52:10.052Z,25.5
2018-05-29T01:52:36.199Z,25.58
2018-05-29T01:53:02.343Z,25.59
2018-05-29T01:53:28.487Z,25.59
2018-05-29T01:53:54.623Z,25.55
2018-05-29T01:54:20.767Z,25.65
2018-05-29T01:54:46.961Z,25.59
2018-05-29T01:55:13.098Z,25.55
2018-05-29T01:55:39.239Z,25.6
2018-05-29T01:56:05.407Z,25.58
2018-05-29T01:56:31.549Z,25.59
2018-05-29T01:56:57.686Z,25.51
2018-05-29T01:57:23.836Z,25.48
2018-05-29T01:57:49.971Z,25.55
2018-05-29T01:58:16.120Z,25.51
2018-05-29T01:58:42.260Z,25.62
2018-05-29T01:59:08.410Z,25.53
2018-05-29T01:59:34.567Z,25.6
2018-05-29T02:00:00.706Z,25.55
2018-05-29T02:00:26.853Z,25.5
2018-05-29T02:00:52.993Z,25.54
2018-05-29T02:01:19.161Z,25.59
2018-05-29T02:01:45.322Z,25.59
2018-05-29T02:02:11.467Z,25.5
2018-05-29T02:02:37.634Z,25.47
2018-05-29T02:03:03.781Z,25.59
2018-05-29T02:03:29.922Z,25.47
2018-05-29T02:03:56.084Z,25.46
2018-05-29T02:04:22.278Z,25.55
2018-05-29T02:04:48.387Z,25.48
2018-05-29T02:05:14.532Z,25.5
2018-05-29T02:05:40.700Z,25.5
2018-05-29T02:06:06.893Z,25.53
2018-05-29T02:06:33.036Z,25.53
2018-05-29T02:06:59.174Z,25.59
2018-05-29T02:07:25.347Z,25.5
2018-05-29T02:07:51.489Z,25.48
2018-05-29T02:08:17.623Z,25.44
2018-05-29T02:08:43.763Z,25.48
2018-05-29T02:09:09.910Z,25.48
2018-05-29T02:09:36.078Z,25.48
2018-05-29T02:10:02.301Z,25.5
2018-05-29T02:10:28.451Z,25.47
2018-05-29T02:10:54.610Z,25.43
2018-05-29T02:11:20.754Z,25.4
2018-05-29T02:11:46.893Z,25.43
2018-05-29T02:12:13.035Z,25.47
2018-05-29T02:12:39.180Z,25.36
2018-05-29T02:13:05.350Z,25.47
2018-05-29T02:13:31.531Z,25.47
2018-05-29T02:13:57.661Z,25.43
2018-05-29T02:14:23.850Z,25.46
2018-05-29T02:14:49.999Z,25.43
2018-05-29T02:15:16.155Z,25.44
2018-05-29T02:15:42.314Z,25.48
2018-05-29T02:16:08.456Z,25.47
2018-05-29T02:16:34.617Z,25.41
2018-05-29T02:17:00.762Z,25.44
2018-05-29T02:17:26.903Z,25.51
2018-05-29T02:17:53.065Z,25.5
2018-05-29T02:18:19.228Z,25.48
2018-05-29T02:18:45.390Z,25.48
2018-05-29T02:19:11.600Z,25.55
2018-05-29T02:19:37.733Z,25.5
2018-05-29T02:20:03.879Z,25.59
2018-05-29T02:20:30.029Z,25.48
2018-05-29T02:20:56.170Z,25.58
2018-05-29T02:21:22.302Z,25.6
2018-05-29T02:21:48.449Z,25.58
2018-05-29T02:22:14.638Z,25.47
2018-05-29T02:22:40.766Z,25.47
2018-05-29T02:23:06.938Z,25.46
2018-05-29T02:23:33.127Z,25.44
2018-05-29T02:23:59.273Z,25.43
2018-05-29T02:24:25.449Z,25.48
2018-05-29T02:24:51.589Z,25.46
2018-05-29T02:25:17.757Z,25.46
2018-05-29T02:25:43.899Z,25.46
2018-05-29T02:26:10.057Z,25.41
2018-05-29T02:26:36.200Z,25.47
2018-05-29T02:27:02.406Z,25.55
2018-05-29T02:27:28.542Z,25.51
2018-05-29T02:27:54.704Z,25.55
2018-05-29T02:28:20.848Z,25.59
2018-05-29T02:28:47.010Z,25.54
2018-05-29T02:29:13.150Z,25.53
2018-05-29T02:29:39.285Z,25.65
2018-05-29T02:30:05.432Z,25.65
2018-05-29T02:30:31.633Z,25.55
2018-05-29T02:30:57.797Z,25.51
2018-05-29T02:31:23.938Z,25.63
2018-05-29T02:31:50.163Z,25.54
2018-05-29T02:32:16.311Z,25.58
2018-05-29T02:32:42.524Z,25.58
2018-05-29T02:33:08.685Z,25.54
2018-05-29T02:33:34.831Z,25.55
2018-05-29T02:34:00.992Z,25.59
2018-05-29T02:34:27.132Z,25.59
2018-05-29T02:34:53.294Z,25.65
2018-05-29T02:35:19.433Z,25.55
2018-05-29T02:35:45.606Z,25.62
2018-05-29T02:36:11.811Z,25.54
2018-05-29T02:36:37.974Z,25.62
2018-05-29T02:37:04.139Z,25.55
2018-05-29T02:37:30.300Z,25.58
2018-05-29T02:37:56.465Z,25.51
2018-05-29T02:38:22.619Z,25.55
2018-05-29T02:38:48.796Z,25.5
2018-05-29T02:39:14.982Z,25.46
2018-05-29T02:39:41.120Z,25.43
2018-05-29T02:40:07.284Z,25.46
2018-05-29T02:40:33.505Z,25.41
2018-05-29T02:40:59.715Z,25.41
2018-05-29T02:41:25.879Z,25.46
2018-05-29T02:41:52.036Z,25.5
2018-05-29T02:42:18.165Z,25.5
2018-05-29T02:42:44.335Z,25.47
2018-05-29T02:43:10.471Z,25.51
2018-05-29T02:43:36.663Z,25.43
2018-05-29T02:44:02.877Z,25.4
2018-05-29T02:44:29.015Z,25.38
2018-05-29T02:44:55.179Z,25.41
2018-05-29T02:45:21.367Z,25.38
2018-05-29T02:45:47.529Z,25.31
2018-05-29T02:46:13.728Z,25.35
2018-05-29T02:46:39.883Z,25.35
2018-05-29T02:47:06.075Z,25.33
2018-05-29T02:47:32.218Z,25.31
2018-05-29T02:47:58.434Z,25.26
2018-05-29T02:48:24.594Z,25.31
2018-05-29T02:48:50.820Z,25.29
2018-05-29T02:49:16.976Z,25.36
2018-05-29T02:49:43.119Z,25.38
2018-05-29T02:50:09.258Z,25.32
2018-05-29T02:50:35.395Z,25.41
2018-05-29T02:51:01.548Z,25.32
2018-05-29T02:51:27.713Z,25.31
2018-05-29T02:51:53.880Z,25.36
2018-05-29T02:52:20.048Z,25.33
2018-05-29T02:52:46.220Z,25.35
2018-05-29T02:53:12.378Z,25.35
2018-05-29T02:53:38.534Z,25.28
2018-05-29T02:54:04.666Z,25.36
2018-05-29T02:54:30.817Z,25.28
2018-05-29T02:54:56.970Z,25.32
2018-05-29T02:55:23.110Z,25.28
2018-05-29T02:55:49.266Z,25.26
2018-05-29T02:56:15.404Z,25.32
2018-05-29T02:56:41.553Z,25.36
2018-05-29T02:57:07.690Z,25.28
2018-05-29T02:57:33.829Z,25.33
2018-05-29T02:57:59.965Z,25.32
2018-05-29T02:58:26.129Z,25.41
2018-05-29T02:58:52.277Z,25.35
2018-05-29T02:59:18.433Z,25.38
2018-05-29T02:59:44.572Z,25.35
2018-05-29T03:00:10.732Z,25.38
2018-05-29T03:00:36.896Z,25.4
2018-05-29T03:01:03.195Z,25.31
2018-05-29T03:01:29.415Z,25.29
2018-05-29T03:01:55.757Z,25.36
2018-05-29T03:02:22.142Z,25.33
2018-05-29T03:02:48.422Z,25.35
2018-05-29T03:03:14.816Z,25.31
2018-05-29T03:03:41.110Z,25.29
2018-05-29T03:04:07.678Z,25.31
2018-05-29T03:04:33.960Z,25.33
2018-05-29T03:05:00.220Z,25.41
2018-05-29T03:05:26.406Z,25.38
2018-05-29T03:05:52.771Z,25.32
2018-05-29T03:06:18.944Z,25.29
2018-05-29T03:06:45.092Z,25.35
2018-05-29T03:07:11.230Z,25.26
2018-05-29T03:07:37.421Z,25.29
2018-05-29T03:08:03.588Z,25.28
2018-05-29T03:08:29.696Z,25.25
2018-05-29T03:08:55.845Z,25.28
2018-05-29T03:09:21.981Z,25.18
2018-05-29T03:09:48.131Z,25.22
2018-05-29T03:10:14.282Z,25.25
2018-05-29T03:10:40.444Z,25.26
2018-05-29T03:11:06.573Z,25.26
2018-05-29T03:11:32.706Z,25.23
2018-05-29T03:11:58.845Z,25.21
2018-05-29T03:12:25.006Z,25.14
2018-05-29T03:12:51.175Z,25.23
2018-05-29T03:13:17.387Z,25.14
2018-05-29T03:13:43.518Z,25.17
2018-05-29T03:14:09.673Z,25.23
2018-05-29T03:14:35.811Z,25.25
2018-05-29T03:15:01.978Z,25.17
2018-05-29T03:15:28.169Z,25.16
2018-05-29T03:15:54.332Z,25.21
2018-05-29T03:16:20.478Z,25.14
2018-05-29T03:16:46.622Z,25.11
2018-05-29T03:17:12.775Z,25.1
2018-05-29T03:17:38.902Z,25.14
2018-05-29T03:18:05.106Z,25.13
2018-05-29T03:18:31.251Z,25.04
2018-05-29T03:18:57.403Z,24.99
2018-05-29T03:19:23.542Z,25.16
2018-05-29T03:19:49.694Z,25.01
2018-05-29T03:20:15.850Z,25.01
2018-05-29T03:20:41.989Z,25.04
2018-05-29T03:21:08.158Z,25.03
2018-05-29T03:21:34.334Z,24.93
2018-05-29T03:22:00.475Z,25.01
2018-05-29T03:22:26.625Z,25.04
2018-05-29T03:22:52.799Z,25.04
2018-05-29T03:23:18.931Z,24.98
2018-05-29T03:23:45.066Z,25.04
2018-05-29T03:24:11.213Z,25.03
2018-05-29T03:24:37.411Z,25.04
2018-05-29T03:25:03.546Z,25.06
2018-05-29T03:25:29.685Z,25.03
2018-05-29T03:25:55.849Z,25.06
2018-05-29T03:26:22.032Z,25.01
2018-05-29T03:26:48.173Z,25.06
2018-05-29T03:27:14.335Z,24.92
2018-05-29T03:27:40.503Z,24.95
2018-05-29T03:28:06.669Z,24.92
2018-05-29T03:28:32.854Z,24.91
2018-05-29T03:28:59.005Z,24.91
2018-05-29T03:29:25.163Z,24.88
2018-05-29T03:29:51.312Z,24.93
2018-05-29T03:30:17.471Z,24.89
2018-05-29T03:30:43.663Z,24.88
2018-05-29T03:31:09.836Z,24.92
2018-05-29T03:31:36.007Z,24.89
2018-05-29T03:32:02.144Z,24.92
2018-05-29T03:32:28.307Z,24.89
2018-05-29T03:32:54.447Z,24.92
2018-05-29T03:33:20.588Z,24.89
2018-05-29T03:33:46.728Z,24.89
2018-05-29T03:34:12.934Z,24.89
2018-05-29T03:34:39.116Z,24.96
2018-05-29T03:35:05.255Z,25.03
2018-05-29T03:35:31.399Z,24.95
2018-05-29T03:35:57.535Z,24.92
2018-05-29T03:36:23.706Z,24.89
2018-05-29T03:36:49.841Z,24.88
2018-05-29T03:37:15.989Z,25.01
2018-05-29T03:37:42.123Z,24.92
2018-05-29T03:38:08.312Z,24.89
2018-05-29T03:38:34.454Z,24.93
2018-05-29T03:39:00.640Z,24.86
2018-05-29T03:39:26.789Z,24.88
2018-05-29T03:39:52.951Z,24.88
2018-05-29T03:40:19.095Z,24.8
2018-05-29T03:40:45.262Z,24.8
2018-05-29T03:41:11.430Z,24.73
2018-05-29T03:41:37.552Z,24.66
2018-05-29T03:42:03.721Z,24.76
2018-05-29T03:42:29.855Z,24.76
2018-05-29T03:42:56.030Z,24.74
2018-05-29T03:43:22.168Z,24.8
2018-05-29T03:43:48.310Z,24.73
2018-05-29T03:44:14.454Z,24.76
2018-05-29T03:44:40.597Z,24.73
2018-05-29T03:45:06.738Z,24.68
2018-05-29T03:45:32.876Z,24.66
2018-05-29T03:45:59.039Z,24.66
2018-05-29T03:46:25.185Z,24.69
2018-05-29T03:46:51.376Z,24.68
2018-05-29T03:47:17.561Z,24.8
2018-05-29T03:47:43.721Z,24.68
2018-05-29T03:48:09.859Z,24.78
2018-05-29T03:48:36.029Z,24.8
2018-05-29T03:49:02.185Z,24.86
2018-05-29T03:49:28.360Z,24.85
2018-05-29T03:49:54.542Z,24.85
2018-05-29T03:50:20.724Z,24.84
2018-05-29T03:50:46.844Z,24.84
2018-05-29T03:51:12.995Z,24.95
2018-05-29T03:51:39.180Z,24.88
2018-05-29T03:52:05.324Z,24.81
2018-05-29T03:52:31.467Z,24.85
2018-05-29T03:52:57.770Z,24.8
2018-05-29T03:53:23.915Z,24.89
2018-05-29T03:53:50.229Z,24.89
2018-05-29T03:54:16.507Z,24.95
2018-05-29T03:54:42.932Z,24.92
2018-05-29T03:55:09.399Z,24.92
2018-05-29T03:55:35.658Z,24.88
2018-05-29T03:56:01.811Z,24.86
2018-05-29T03:56:28.044Z,24.89
2018-05-29T03:56:54.282Z,24.76
2018-05-29T03:57:20.434Z,24.77
2018-05-29T03:57:46.589Z,24.84
2018-05-29T03:58:12.753Z,24.81
2018-05-29T03:58:38.904Z,24.85
2018-05-29T03:59:05.049Z,24.86
2018-05-29T03:59:31.211Z,24.95
2018-05-29T03:59:57.370Z,24.85
2018-05-29T04:00:23.505Z,24.88
2018-05-29T04:00:49.698Z,24.92
2018-05-29T04:01:15.837Z,24.91
2018-05-29T04:01:42.010Z,24.95
2018-05-29T04:02:08.210Z,25.06
2018-05-29T04:02:34.375Z,25.01
2018-05-29T04:03:00.577Z,25.07
2018-05-29T04:03:26.743Z,24.98
2018-05-29T04:03:52.883Z,25.01
2018-05-29T04:04:19.017Z,25.08
2018-05-29T04:04:45.159Z,25.16
2018-05-29T04:05:11.298Z,25.11
2018-05-29T04:05:37.474Z,25.13
2018-05-29T04:06:03.607Z,25.16
2018-05-29T04:06:29.755Z,25.17
2018-05-29T04:06:55.918Z,25.18
2018-05-29T04:07:22.073Z,25.17
2018-05-29T04:07:48.214Z,25.17
2018-05-29T04:08:14.384Z,25.16
2018-05-29T04:08:40.558Z,25.21
2018-05-29T04:09:06.716Z,25.08
2018-05-29T04:09:32.899Z,25.13
2018-05-29T04:09:59.085Z,25.07
2018-05-29T04:10:25.200Z,24.89
2018-05-29T04:10:51.338Z,25.01
2018-05-29T04:11:17.482Z,24.89
2018-05-29T04:11:43.658Z,24.86
2018-05-29T04:12:09.839Z,24.89
2018-05-29T04:12:35.967Z,24.76
2018-05-29T04:13:02.137Z,24.88
2018-05-29T04:13:28.328Z,24.85
2018-05-29T04:13:54.512Z,24.88
2018-05-29T04:14:20.703Z,24.89
2018-05-29T04:14:46.860Z,24.85
2018-05-29T04:15:12.993Z,24.86
2018-05-29T04:15:39.156Z,24.93
2018-05-29T04:16:05.298Z,25.04
2018-05-29T04:16:31.440Z,24.98
2018-05-29T04:16:57.602Z,24.92
2018-05-29T04:17:23.729Z,24.96
2018-05-29T04:17:49.873Z,24.93
2018-05-29T04:18:16.038Z,24.91
2018-05-29T04:18:42.199Z,24.95
2018-05-29T04:19:08.372Z,24.86
2018-05-29T04:19:34.506Z,24.88
2018-05-29T04:20:00.654Z,24.95
2018-05-29T04:20:26.791Z,24.98
2018-05-29T04:20:52.931Z,24.91
2018-05-29T04:21:19.097Z,24.89
2018-05-29T04:21:45.245Z,24.99
2018-05-29T04:22:11.396Z,24.98
2018-05-29T04:22:37.584Z,25.06
2018-05-29T04:23:03.720Z,25.07
2018-05-29T04:23:29.901Z,24.98
2018-05-29T04:23:56.044Z,25.04
2018-05-29T04:24:22.181Z,25.06
2018-05-29T04:24:48.341Z,25.07
2018-05-29T04:25:14.483Z,25.01
2018-05-29T04:25:40.622Z,25.06
2018-05-29T04:26:06.772Z,25.13
2018-05-29T04:26:32.997Z,25.13
2018-05-29T04:26:59.162Z,25.1
2018-05-29T04:27:25.306Z,25.01
2018-05-29T04:27:51.475Z,25.1
2018-05-29T04:28:17.623Z,25.13
2018-05-29T04:28:43.762Z,25.1
2018-05-29T04:29:09.904Z,25.21
2018-05-29T04:29:36.041Z,25.14
2018-05-29T04:30:02.191Z,25.01
2018-05-29T04:30:28.350Z,25.01
2018-05-29T04:30:54.501Z,25.03
2018-05-29T04:31:20.636Z,25.03
2018-05-29T04:31:46.783Z,24.91
2018-05-29T04:32:12.921Z,24.95
2018-05-29T04:32:39.074Z,24.86
2018-05-29T04:33:05.210Z,24.86
2018-05-29T04:33:31.383Z,25.01
2018-05-29T04:33:57.520Z,24.92
2018-05-29T04:34:23.690Z,24.93
2018-05-29T04:34:49.826Z,24.92
2018-05-29T04:35:15.966Z,24.95
2018-05-29T04:35:42.113Z,25.03
2018-05-29T04:36:08.253Z,25.01
2018-05-29T04:36:34.391Z,25.03
2018-05-29T04:37:00.555Z,25.03
2018-05-29T04:37:26.725Z,24.95
2018-05-29T04:37:52.899Z,25.03
2018-05-29T04:38:19.036Z,24.99
2018-05-29T04:38:45.207Z,25.01
2018-05-29T04:39:11.350Z,25.01
2018-05-29T04:39:37.517Z,24.99
2018-05-29T04:40:03.664Z,24.91
2018-05-29T04:40:29.825Z,25.04
2018-05-29T04:40:55.972Z,25.04
2018-05-29T04:41:22.107Z,25.11
2018-05-29T04:41:48.297Z,25.21
2018-05-29T04:42:14.439Z,25.13
2018-05-29T04:42:40.573Z,25.25
2018-05-29T04:43:06.742Z,25.17
2018-05-29T04:43:32.881Z,25.01
2018-05-29T04:43:59.019Z,25.04
2018-05-29T04:44:25.169Z,25.01
2018-05-29T04:44:51.329Z,25.1
2018-05-29T04:45:17.474Z,25.22
2018-05-29T04:45:43.614Z,25.31
2018-05-29T04:46:09.763Z,25.43
2018-05-29T04:46:35.905Z,25.75
2018-05-29T04:47:02.100Z,25.78
2018-05-29T04:47:28.242Z,25.93
2018-05-29T04:47:54.384Z,26.07
2018-05-29T04:48:20.551Z,26.16
2018-05-29T04:48:46.692Z,26.29
2018-05-29T04:49:12.842Z,26.33
2018-05-29T04:49:39.065Z,26.41
2018-05-29T04:50:05.175Z,26.36
2018-05-29T04:50:31.310Z,26.4
2018-05-29T04:50:57.486Z,26.38
2018-05-29T04:51:23.635Z,26.47
2018-05-29T04:51:49.811Z,26.62
2018-05-29T04:52:15.975Z,26.56
2018-05-29T04:52:42.543Z,26.48
2018-05-29T04:53:08.894Z,26.44
2018-05-29T04:53:35.080Z,26.6
2018-05-29T04:54:01.225Z,26.65
2018-05-29T04:54:27.438Z,26.74
2018-05-29T04:54:53.575Z,26.78
2018-05-29T04:55:19.721Z,26.78
2018-05-29T04:55:45.856Z,26.85
2018-05-29T04:56:11.997Z,26.83
2018-05-29T04:56:38.176Z,26.9
2018-05-29T04:57:04.306Z,26.81
2018-05-29T04:57:30.467Z,26.8
2018-05-29T04:57:56.606Z,26.78
2018-05-29T04:58:22.746Z,26.81
2018-05-29T04:58:48.896Z,26.73
2018-05-29T04:59:15.041Z,26.63
2018-05-29T04:59:41.213Z,26.68
2018-05-29T05:00:07.353Z,26.77
2018-05-29T05:00:33.523Z,26.75
2018-05-29T05:00:59.668Z,26.71
2018-05-29T05:01:25.811Z,26.71
2018-05-29T05:01:51.955Z,26.55
2018-05-29T05:02:18.116Z,26.33
2018-05-29T05:02:44.260Z,26.16
2018-05-29T05:03:10.406Z,26.13
2018-05-29T05:03:36.572Z,26.16
2018-05-29T05:04:02.710Z,26.07
2018-05-29T05:04:28.855Z,26.06
2018-05-29T05:04:55.019Z,26.09
2018-05-29T05:05:21.161Z,26.13
2018-05-29T05:05:47.297Z,26.03
2018-05-29T05:06:13.461Z,25.93
2018-05-29T05:06:39.605Z,25.88
2018-05-29T05:07:05.779Z,25.84
2018-05-29T05:07:31.923Z,25.83
2018-05-29T05:07:58.109Z,25.73
2018-05-29T05:08:24.248Z,25.58
2018-05-29T05:08:50.426Z,25.53
2018-05-29T05:09:16.584Z,25.66
2018-05-29T05:09:42.735Z,25.53
2018-05-29T05:10:08.879Z,25.5
2018-05-29T05:10:35.010Z,25.48
2018-05-29T05:11:01.149Z,25.51
2018-05-29T05:11:27.296Z,25.5
2018-05-29T05:11:53.440Z,25.47
2018-05-29T05:12:19.574Z,25.41
2018-05-29T05:12:45.725Z,25.41
2018-05-29T05:13:11.857Z,25.5
2018-05-29T05:13:38.002Z,25.43
2018-05-29T05:14:04.175Z,25.5
2018-05-29T05:14:30.311Z,25.41
2018-05-29T05:14:56.447Z,25.48
2018-05-29T05:15:22.598Z,25.5
2018-05-29T05:15:48.727Z,25.59
2018-05-29T05:16:14.876Z,25.5
2018-05-29T05:16:41.010Z,25.47
2018-05-29T05:17:07.157Z,25.44
2018-05-29T05:17:33.293Z,25.4
2018-05-29T05:17:59.436Z,25.35
2018-05-29T05:18:25.576Z,25.38
2018-05-29T05:18:51.719Z,25.33
2018-05-29T05:19:17.891Z,25.36
2018-05-29T05:19:44.057Z,25.38
2018-05-29T05:20:10.215Z,25.33
2018-05-29T05:20:36.341Z,25.17
2018-05-29T05:21:02.487Z,25.23
2018-05-29T05:21:28.631Z,25.21
2018-05-29T05:21:54.819Z,25.21
2018-05-29T05:22:20.962Z,25.22
2018-05-29T05:22:47.127Z,25.11
2018-05-29T05:23:13.281Z,25.11
2018-05-29T05:23:39.492Z,25.13
2018-05-29T05:24:05.581Z,25.14
2018-05-29T05:24:31.751Z,25.16
2018-05-29T05:24:57.896Z,25.08
2018-05-29T05:25:24.040Z,25.07
2018-05-29T05:25:50.190Z,24.98
2018-05-29T05:26:16.352Z,25.03
2018-05-29T05:26:42.520Z,25.03
2018-05-29T05:27:08.675Z,25.04
2018-05-29T05:27:34.801Z,25.03
2018-05-29T05:28:00.972Z,25.17
2018-05-29T05:28:27.118Z,25.11
2018-05-29T05:28:53.264Z,25.14
2018-05-29T05:29:19.399Z,25.04
2018-05-29T05:29:45.547Z,25.11
2018-05-29T05:30:11.704Z,25.1
2018-05-29T05:30:37.852Z,25.03
2018-05-29T05:31:04.019Z,25.04
2018-05-29T05:31:30.161Z,25.16
2018-05-29T05:31:56.297Z,25.21
2018-05-29T05:32:22.448Z,25.22
2018-05-29T05:32:48.596Z,25.22
2018-05-29T05:33:14.737Z,25.26
2018-05-29T05:33:40.881Z,25.32
2018-05-29T05:34:07.020Z,25.29
2018-05-29T05:34:33.161Z,25.28
2018-05-29T05:34:59.302Z,25.25
2018-05-29T05:35:25.496Z,25.14
2018-05-29T05:35:51.590Z,25.22
2018-05-29T05:36:17.772Z,25.22
2018-05-29T05:36:43.933Z,25.21
2018-05-29T05:37:10.078Z,25.13
2018-05-29T05:37:36.214Z,25.03